Time;durP1;ratioP1;P1;durP2;ratioP2;P2;SDS_P1;SDS_P2;PMS_P1;PMS_P2;Temp;Humidity;BMP_temperature;BMP_pressure;BME280_temperature;BME280_humidity;BME280_pressure;Samples;Min_cycle;Max_cycle;Signal;HPM_P1;HPM_P2
2022/03/10 00:02:07;;;;;;;19.55;11.70;;;5.40;99.90;;;;;;5054360;28;20250;-48
2022/03/10 00:04:34;;;;;;;18.75;10.57;;;5.40;99.90;;;;;;5053766;28;20174;-48
2022/03/10 00:07:02;;;;;;;21.77;11.10;;;5.40;99.90;;;;;;5053671;28;20242;-48
2022/03/10 00:09:28;;;;;;;30.27;14.48;;;5.40;99.90;;;;;;5053873;28;20574;-48
2022/03/10 00:11:54;;;;;;;28.65;14.07;;;5.40;99.90;;;;;;5053487;28;20170;-49
2022/03/10 00:14:19;;;;;;;20.42;11.98;;;5.40;99.90;;;;;;5035725;28;20584;-49
2022/03/10 00:16:45;;;;;;;19.70;11.60;;;5.30;99.90;;;;;;5052951;28;20247;-49
2022/03/10 00:19:12;;;;;;;22.42;12.27;;;5.30;99.90;;;;;;5035588;28;20178;-49
2022/03/10 00:21:38;;;;;;;21.55;11.63;;;5.30;99.90;;;;;;5053533;28;20543;-49
2022/03/10 00:24:04;;;;;;;21.20;12.05;;;5.30;99.90;;;;;;5053338;28;20503;-49
2022/03/10 00:26:29;;;;;;;20.55;11.88;;;5.30;99.90;;;;;;5053275;28;20169;-48
2022/03/10 00:28:55;;;;;;;21.65;11.30;;;5.30;99.90;;;;;;5053284;28;20196;-49
2022/03/10 00:31:21;;;;;;;20.67;11.38;;;5.30;99.90;;;;;;5053221;28;20175;-49
2022/03/10 00:33:47;;;;;;;20.23;11.85;;;5.30;99.90;;;;;;5053263;28;20236;-49
2022/03/10 00:36:12;;;;;;;19.42;11.07;;;5.20;99.90;;;;;;5053366;28;20623;-48
2022/03/10 00:38:38;;;;;;;19.23;11.30;;;5.20;99.90;;;;;;5053569;28;20249;-49
2022/03/10 00:41:04;;;;;;;21.17;11.00;;;5.30;99.90;;;;;;5053314;28;20171;-49
2022/03/10 00:43:29;;;;;;;18.33;10.32;;;5.20;99.90;;;;;;5053216;28;20541;-49
2022/03/10 00:45:55;;;;;;;15.20;10.55;;;5.20;99.90;;;;;;5052881;28;20587;-49
2022/03/10 00:48:20;;;;;;;20.20;10.55;;;5.20;99.90;;;;;;5052865;28;20253;-49
2022/03/10 00:50:46;;;;;;;18.15;10.35;;;5.20;99.90;;;;;;5052872;28;20642;-49
2022/03/10 00:53:11;;;;;;;18.88;10.68;;;5.10;99.90;;;;;;5052806;28;20202;-49
2022/03/10 00:55:37;;;;;;;22.35;10.85;;;5.10;99.90;;;;;;5053252;28;20687;-48
2022/03/10 00:58:03;;;;;;;18.88;10.10;;;5.10;99.90;;;;;;5052646;28;20167;-49
2022/03/10 01:00:29;;;;;;;16.40;10.20;;;5.10;99.90;;;;;;5052662;28;20881;-49
2022/03/10 01:02:58;;;;;;;19.40;11.23;;;5.00;99.90;;;;;;5052890;28;20179;-49
2022/03/10 01:05:24;;;;;;;24.60;11.50;;;5.10;99.90;;;;;;5052533;28;20181;-50
2022/03/10 01:07:50;;;;;;;17.88;10.80;;;5.10;99.90;;;;;;5052571;28;20166;-48
2022/03/10 01:10:17;;;;;;;20.13;9.90;;;5.10;99.90;;;;;;5052517;28;20163;-49
2022/03/10 01:12:45;;;;;;;18.15;10.85;;;5.10;99.90;;;;;;5052591;28;20205;-48
2022/03/10 01:15:14;;;;;;;27.17;13.48;;;5.10;99.90;;;;;;5052575;28;20174;-48
2022/03/10 01:17:40;;;;;;;17.75;10.85;;;5.10;99.90;;;;;;5051997;28;20163;-49
2022/03/10 01:20:06;;;;;;;22.15;12.75;;;5.00;99.90;;;;;;5052522;28;20179;-48
2022/03/10 01:22:31;;;;;;;16.83;11.05;;;5.00;99.90;;;;;;5052311;28;20170;-48
2022/03/10 01:24:57;;;;;;;14.57;9.77;;;5.00;99.90;;;;;;5052187;28;20174;-49
2022/03/10 01:27:22;;;;;;;17.17;10.10;;;5.00;99.90;;;;;;5052527;28;20292;-50
2022/03/10 01:29:48;;;;;;;14.23;9.68;;;4.90;99.90;;;;;;5033490;28;20221;-49
2022/03/10 01:32:13;;;;;;;17.10;8.80;;;4.80;99.90;;;;;;5051943;28;20221;-49
2022/03/10 01:34:39;;;;;;;17.23;9.40;;;4.80;99.90;;;;;;5052059;28;20537;-48
2022/03/10 01:37:05;;;;;;;17.33;10.68;;;4.80;99.90;;;;;;5052320;28;20182;-49
2022/03/10 01:39:32;;;;;;;18.05;9.48;;;4.80;99.90;;;;;;5052048;28;20220;-49
2022/03/10 01:42:03;;;;;;;19.33;10.73;;;4.80;99.90;;;;;;5052139;28;20232;-49
2022/03/10 01:44:29;;;;;;;17.75;10.93;;;4.90;99.90;;;;;;5052109;28;20178;-49
2022/03/10 01:46:55;;;;;;;16.70;11.52;;;4.80;99.90;;;;;;5051648;28;20703;-50
2022/03/10 01:49:21;;;;;;;17.63;12.65;;;4.80;99.90;;;;;;5052191;28;20196;-49
2022/03/10 01:51:46;;;;;;;15.93;9.40;;;4.80;99.90;;;;;;5051862;28;20202;-50
2022/03/10 01:54:12;;;;;;;18.58;11.25;;;4.80;99.90;;;;;;5051717;28;20253;-48
2022/03/10 01:56:38;;;;;;;25.40;15.57;;;4.80;99.90;;;;;;5052147;28;20167;-48
2022/03/10 01:59:04;;;;;;;22.30;13.40;;;4.70;99.90;;;;;;5052397;28;20241;-49
2022/03/10 02:01:31;;;;;;;17.40;10.35;;;4.70;99.90;;;;;;5052034;28;20171;-52
2022/03/10 02:03:57;;;;;;;23.33;13.10;;;4.70;99.90;;;;;;5051723;28;20166;-49
2022/03/10 02:06:23;;;;;;;19.40;11.35;;;4.80;99.90;;;;;;5051745;28;20640;-49
2022/03/10 02:11:34;;;;;;;29.35;15.40;;;4.70;99.90;;;;;;5051897;28;20177;-49
2022/03/10 02:17:19;;;;;;;20.38;10.60;;;4.80;99.90;;;;;;5051489;28;20214;-49
2022/03/10 02:19:29;;;;;;;27.48;16.52;;;4.70;99.90;;;;;;5051786;28;20190;-48
2022/03/10 02:21:57;;;;;;;17.98;10.88;;;4.70;99.90;;;;;;5051507;28;20166;-48
2022/03/10 02:24:23;;;;;;;17.70;10.35;;;4.70;99.90;;;;;;5051762;28;20301;-48
2022/03/10 02:26:48;;;;;;;22.33;10.90;;;4.70;99.90;;;;;;5051541;28;20179;-49
2022/03/10 02:29:15;;;;;;;18.63;9.35;;;4.70;99.90;;;;;;5051423;28;20174;-49
2022/03/10 02:31:41;;;;;;;15.27;10.40;;;4.70;99.90;;;;;;5051706;28;20536;-49
2022/03/10 02:34:09;;;;;;;22.42;12.65;;;4.60;99.90;;;;;;5051992;28;20206;-48
2022/03/10 02:36:35;;;;;;;36.95;17.40;;;4.60;99.90;;;;;;5051783;28;20253;-49
2022/03/10 02:39:00;;;;;;;16.23;10.27;;;4.60;99.90;;;;;;5051388;28;20338;-49
2022/03/10 02:41:26;;;;;;;16.40;10.23;;;4.70;99.90;;;;;;5054451;28;20165;-50
2022/03/10 02:43:51;;;;;;;16.65;10.43;;;4.60;99.90;;;;;;5055398;28;20178;-49
2022/03/10 02:46:17;;;;;;;17.75;10.30;;;4.60;99.90;;;;;;5055213;28;20229;-49
2022/03/10 02:48:42;;;;;;;17.02;10.05;;;4.60;99.90;;;;;;5055237;28;20174;-49
2022/03/10 02:51:08;;;;;;;21.30;10.05;;;4.70;99.90;;;;;;5037580;28;20170;-49
2022/03/10 02:53:33;;;;;;;17.20;9.82;;;4.50;99.90;;;;;;5054978;28;20667;-49
2022/03/10 02:55:59;;;;;;;16.00;9.88;;;4.50;99.90;;;;;;5055124;28;20170;-49
2022/03/10 02:58:24;;;;;;;14.30;9.20;;;4.50;99.90;;;;;;5055286;28;20175;-50
2022/03/10 03:00:50;;;;;;;16.55;10.00;;;4.50;99.90;;;;;;5054983;28;20167;-49
2022/03/10 03:03:16;;;;;;;16.92;9.63;;;4.50;99.90;;;;;;5055617;28;20228;-49
2022/03/10 03:05:42;;;;;;;17.95;10.65;;;4.40;99.90;;;;;;5054873;28;20485;-48
2022/03/10 03:08:08;;;;;;;18.00;10.55;;;4.40;99.90;;;;;;5055384;28;20183;-49
2022/03/10 03:10:36;;;;;;;18.23;10.30;;;4.40;99.90;;;;;;5054962;28;20170;-49
2022/03/10 03:13:04;;;;;;;19.95;10.10;;;4.40;99.90;;;;;;5054874;28;20246;-49
2022/03/10 03:15:30;;;;;;;17.63;10.07;;;4.40;99.90;;;;;;5054674;28;20212;-49
2022/03/10 03:17:55;;;;;;;16.85;10.30;;;4.30;99.90;;;;;;5054632;28;20182;-48
2022/03/10 03:20:21;;;;;;;17.45;10.38;;;4.30;99.90;;;;;;5054780;28;20229;-49
2022/03/10 03:22:47;;;;;;;31.77;18.55;;;4.30;99.90;;;;;;5054488;28;20167;-49
2022/03/10 03:25:17;;;;;;;64.78;33.30;;;4.30;99.90;;;;;;5054455;28;20181;-49
2022/03/10 03:27:43;;;;;;;30.48;16.77;;;4.30;99.90;;;;;;5054403;28;20177;-48
2022/03/10 03:30:09;;;;;;;18.67;11.35;;;4.20;99.90;;;;;;5054729;28;20535;-49
2022/03/10 03:32:34;;;;;;;16.30;10.70;;;4.20;99.90;;;;;;5054823;28;20199;-49
2022/03/10 03:35:00;;;;;;;17.60;9.93;;;4.20;99.90;;;;;;5054255;28;20508;-49
2022/03/10 03:37:26;;;;;;;17.80;9.73;;;4.20;99.90;;;;;;5054273;28;20206;-49
2022/03/10 03:39:51;;;;;;;17.30;10.13;;;4.10;99.90;;;;;;5054199;28;20574;-49
2022/03/10 03:42:17;;;;;;;18.25;10.13;;;4.10;99.90;;;;;;5054121;28;20174;-49
2022/03/10 03:44:42;;;;;;;16.23;10.15;;;4.10;99.90;;;;;;5054072;28;20205;-48
2022/03/10 03:47:08;;;;;;;18.73;9.90;;;4.10;99.90;;;;;;5054301;28;20218;-50
2022/03/10 03:49:33;;;;;;;17.50;9.80;;;4.00;99.90;;;;;;5054051;28;20159;-48
2022/03/10 03:51:59;;;;;;;17.77;10.57;;;4.10;99.90;;;;;;5052874;28;20301;-48
2022/03/10 03:54:25;;;;;;;20.83;10.95;;;4.00;99.90;;;;;;5054109;28;20170;-48
2022/03/10 03:56:50;;;;;;;24.95;10.82;;;4.00;99.90;;;;;;5053906;28;20190;-49
2022/03/10 03:59:16;;;;;;;20.33;10.80;;;4.00;99.90;;;;;;5053783;28;20169;-48
2022/03/10 04:01:41;;;;;;;17.80;10.02;;;4.10;99.90;;;;;;5053726;28;20167;-48
2022/03/10 04:04:07;;;;;;;20.20;10.88;;;4.00;99.90;;;;;;5054157;28;20166;-49
2022/03/10 04:06:33;;;;;;;17.90;10.98;;;4.00;99.90;;;;;;5053934;28;20198;-49
2022/03/10 04:08:59;;;;;;;16.85;10.18;;;4.00;99.90;;;;;;5053836;28;21057;-49
2022/03/10 04:11:25;;;;;;;18.90;11.25;;;4.00;99.90;;;;;;5053861;28;20216;-49
2022/03/10 04:13:50;;;;;;;16.30;10.20;;;4.00;99.90;;;;;;5035632;28;20206;-49
2022/03/10 04:16:16;;;;;;;20.80;10.02;;;4.00;99.90;;;;;;5053611;28;20167;-49
2022/03/10 04:18:41;;;;;;;18.45;10.48;;;4.00;99.90;;;;;;5053782;28;20221;-49
2022/03/10 04:21:07;;;;;;;20.20;10.55;;;3.90;99.90;;;;;;5053889;28;20578;-49
2022/03/10 04:23:33;;;;;;;17.90;10.85;;;3.90;99.90;;;;;;5053326;28;20190;-49
2022/03/10 04:26:00;;;;;;;17.00;10.82;;;3.90;99.90;;;;;;5053311;28;20241;-49
2022/03/10 04:28:25;;;;;;;19.42;10.98;;;3.80;99.90;;;;;;5053531;28;20174;-49
2022/03/10 04:30:51;;;;;;;19.60;11.95;;;3.90;99.90;;;;;;5053305;28;20573;-50
2022/03/10 04:33:17;;;;;;;18.27;11.27;;;3.80;99.90;;;;;;5053082;28;20206;-49
2022/03/10 04:35:43;;;;;;;16.08;10.77;;;3.80;99.90;;;;;;5053106;28;20250;-48
2022/03/10 04:38:08;;;;;;;21.77;11.20;;;3.80;99.90;;;;;;5053397;28;20167;-50
2022/03/10 04:40:34;;;;;;;20.30;10.88;;;3.70;99.90;;;;;;5053450;28;20250;-49
2022/03/10 04:43:00;;;;;;;19.02;10.95;;;3.70;99.90;;;;;;5053301;28;20175;-49
2022/03/10 04:45:25;;;;;;;21.25;12.23;;;3.70;99.90;;;;;;5052819;28;20221;-49
2022/03/10 04:47:51;;;;;;;21.80;12.25;;;3.70;99.90;;;;;;5052964;28;20174;-49
2022/03/10 04:50:17;;;;;;;19.45;10.95;;;3.70;99.90;;;;;;5035051;28;20193;-49
2022/03/10 04:52:43;;;;;;;17.58;10.90;;;3.70;99.90;;;;;;5052738;28;20214;-48
2022/03/10 04:55:10;;;;;;;20.05;11.07;;;3.70;99.90;;;;;;5053186;28;20158;-48
2022/03/10 04:57:36;;;;;;;19.95;10.27;;;3.70;99.90;;;;;;5053051;28;20583;-49
2022/03/10 05:00:10;;;;;;;19.35;11.07;;;3.60;99.90;;;;;;5053048;28;20171;-49
2022/03/10 05:02:38;;;;;;;20.73;11.45;;;3.60;99.90;;;;;;5053050;28;20170;-49
2022/03/10 05:05:05;;;;;;;24.05;13.75;;;6.10;99.90;;;;;;5052698;28;20166;-48
2022/03/10 05:07:30;;;;;;;20.02;11.35;;;3.60;99.90;;;;;;5052455;28;20220;-49
2022/03/10 05:09:56;;;;;;;22.88;11.02;;;3.60;99.90;;;;;;5052646;28;20182;-49
2022/03/10 05:12:21;;;;;;;17.83;10.15;;;3.60;99.90;;;;;;5052672;28;20693;-48
2022/03/10 05:14:47;;;;;;;17.38;9.70;;;3.50;99.90;;;;;;5052785;28;20293;-49
2022/03/10 05:17:12;;;;;;;19.15;10.50;;;3.40;99.90;;;;;;5052442;28;20505;-48
2022/03/10 05:19:38;;;;;;;17.60;10.05;;;3.50;99.90;;;;;;5052673;28;20182;-49
2022/03/10 05:22:03;;;;;;;15.82;9.98;;;3.40;99.90;;;;;;5052552;28;20167;-49
2022/03/10 05:24:29;;;;;;;15.38;9.57;;;3.40;99.90;;;;;;5052330;28;20173;-49
2022/03/10 05:26:55;;;;;;;18.42;11.25;;;3.40;99.90;;;;;;5052253;28;20555;-49
2022/03/10 05:29:20;;;;;;;19.05;10.15;;;3.40;99.90;;;;;;5052348;28;20209;-49
2022/03/10 05:31:46;;;;;;;21.30;11.60;;;3.40;99.90;;;;;;5052385;28;20167;-49
2022/03/10 05:34:11;;;;;;;17.55;10.77;;;3.30;99.90;;;;;;5052030;28;20713;-48
2022/03/10 05:36:37;;;;;;;17.88;10.10;;;3.30;99.90;;;;;;5052645;28;20169;-49
2022/03/10 05:39:04;;;;;;;21.38;10.05;;;3.30;99.90;;;;;;5051953;28;20190;-49
2022/03/10 05:41:32;;;;;;;19.67;10.63;;;3.20;99.90;;;;;;5052250;28;20174;-49
2022/03/10 05:43:58;;;;;;;20.90;12.05;;;3.30;99.90;;;;;;5052196;28;20511;-49
2022/03/10 05:46:24;;;;;;;20.55;10.20;;;3.40;99.90;;;;;;5051733;28;20229;-49
2022/03/10 05:48:49;;;;;;;20.65;10.63;;;3.20;99.90;;;;;;5034107;28;20170;-49
2022/03/10 05:51:15;;;;;;;17.00;11.95;;;3.30;99.90;;;;;;5051828;28;20170;-49
2022/03/10 05:53:40;;;;;;;20.52;11.32;;;3.30;99.90;;;;;;5051776;28;20244;-48
2022/03/10 05:56:06;;;;;;;20.95;10.77;;;3.30;99.90;;;;;;5052163;28;20212;-48
2022/03/10 05:58:31;;;;;;;18.88;11.82;;;3.20;99.90;;;;;;5051722;28;20568;-50
2022/03/10 06:00:57;;;;;;;20.15;10.60;;;3.20;99.90;;;;;;5051731;28;20250;-48
2022/03/10 06:03:22;;;;;;;18.33;12.18;;;3.20;99.90;;;;;;5051454;28;20216;-48
2022/03/10 06:05:48;;;;;;;18.63;10.15;;;3.20;99.90;;;;;;5051625;28;20166;-48
2022/03/10 06:08:13;;;;;;;18.25;11.30;;;3.20;99.90;;;;;;5051764;28;20225;-49
2022/03/10 06:10:39;;;;;;;18.20;11.07;;;3.20;99.90;;;;;;5017276;28;20206;-48
2022/03/10 06:13:05;;;;;;;24.23;13.27;;;3.30;99.90;;;;;;5052204;28;20264;-48
2022/03/10 06:15:31;;;;;;;19.25;11.70;;;3.30;99.90;;;;;;5053388;28;20170;-49
2022/03/10 06:17:56;;;;;;;19.63;11.20;;;3.30;99.90;;;;;;5055559;28;20167;-48
2022/03/10 06:20:22;;;;;;;15.40;9.52;;;3.30;99.90;;;;;;5055487;28;20170;-48
2022/03/10 06:22:47;;;;;;;21.30;10.68;;;3.30;99.90;;;;;;5055831;28;20170;-48
2022/03/10 06:25:13;;;;;;;20.83;11.07;;;3.30;99.90;;;;;;5055626;28;20532;-48
2022/03/10 06:27:39;;;;;;;21.05;11.10;;;3.40;99.90;;;;;;5055509;28;20237;-46
2022/03/10 06:30:05;;;;;;;20.15;11.35;;;3.40;99.90;;;;;;5055742;28;20171;-49
2022/03/10 06:32:31;;;;;;;19.80;11.15;;;3.40;99.90;;;;;;5055336;28;20292;-49
2022/03/10 06:34:59;;;;;;;19.17;10.85;;;3.40;99.90;;;;;;5055290;28;20249;-48
2022/03/10 06:37:24;;;;;;;17.15;10.52;;;3.40;99.90;;;;;;5055623;28;20167;-48
2022/03/10 06:39:50;;;;;;;17.58;10.23;;;3.50;99.90;;;;;;5055487;28;20170;-49
2022/03/10 06:42:16;;;;;;;20.90;11.02;;;3.50;99.90;;;;;;5055237;28;20240;-49
2022/03/10 06:44:42;;;;;;;16.98;10.50;;;3.50;99.90;;;;;;5055215;28;20254;-49
2022/03/10 06:47:09;;;;;;;18.23;10.85;;;3.50;99.90;;;;;;5055341;28;20211;-49
2022/03/10 06:49:35;;;;;;;17.77;10.90;;;3.60;99.90;;;;;;5055619;28;20178;-49
2022/03/10 06:52:01;;;;;;;25.15;12.40;;;3.70;99.90;;;;;;5055022;28;20204;-49
2022/03/10 06:54:27;;;;;;;19.50;11.52;;;3.70;99.90;;;;;;5055020;28;20182;-49
2022/03/10 06:56:52;;;;;;;21.17;11.98;;;3.70;99.90;;;;;;5055014;28;20163;-48
2022/03/10 06:59:18;;;;;;;23.27;12.90;;;3.80;99.90;;;;;;5054995;28;20266;-49
2022/03/10 07:01:43;;;;;;;20.45;10.68;;;3.80;99.90;;;;;;5054777;28;20713;-49
2022/03/10 07:04:09;;;;;;;21.63;10.98;;;3.80;99.90;;;;;;5037033;28;20162;-48
2022/03/10 07:06:35;;;;;;;26.98;11.73;;;3.80;99.90;;;;;;5055444;28;20524;-48
2022/03/10 07:09:01;;;;;;;20.13;11.35;;;3.90;99.90;;;;;;5054812;28;20607;-48
2022/03/10 07:11:26;;;;;;;18.73;11.77;;;3.90;99.90;;;;;;5054849;28;20167;-48
2022/03/10 07:13:52;;;;;;;17.33;11.15;;;4.00;99.90;;;;;;5055055;28;20599;-49
2022/03/10 07:16:18;;;;;;;25.83;12.40;;;4.10;99.90;;;;;;5054996;28;20262;-48
2022/03/10 07:18:50;;;;;;;17.70;11.43;;;4.20;99.90;;;;;;5054674;28;20170;-49
2022/03/10 07:21:18;;;;;;;20.00;12.10;;;4.30;99.90;;;;;;5054630;28;20174;-48
2022/03/10 07:23:43;;;;;;;20.50;12.00;;;4.30;99.90;;;;;;5054858;28;20178;-48
2022/03/10 07:26:10;;;;;;;20.27;10.90;;;4.40;99.90;;;;;;5053778;28;20197;-48
2022/03/10 07:28:35;;;;;;;23.48;12.00;;;4.50;99.90;;;;;;5054431;28;20212;-48
2022/03/10 07:31:01;;;;;;;20.13;12.27;;;4.60;99.90;;;;;;5054442;28;20201;-48
2022/03/10 07:33:27;;;;;;;17.80;10.98;;;4.80;99.90;;;;;;5054211;28;20281;-48
2022/03/10 07:35:52;;;;;;;26.70;12.90;;;4.90;99.90;;;;;;5054450;28;20166;-49
2022/03/10 07:38:18;;;;;;;19.55;11.32;;;5.00;99.90;;;;;;5054209;28;20174;-49
2022/03/10 07:40:43;;;;;;;19.83;11.77;;;5.00;99.90;;;;;;5054308;28;20174;-48
2022/03/10 07:43:09;;;;;;;17.85;12.18;;;5.10;99.90;;;;;;5054331;28;20220;-48
2022/03/10 07:45:34;;;;;;;18.50;11.85;;;5.10;99.90;;;;;;5054366;28;20600;-49
2022/03/10 07:48:01;;;;;;;19.88;12.15;;;5.10;99.90;;;;;;5036259;28;20170;-49
2022/03/10 07:50:26;;;;;;;18.10;11.70;;;5.20;99.90;;;;;;5054355;28;20166;-48
2022/03/10 07:52:52;;;;;;;18.05;11.15;;;5.30;99.90;;;;;;5053871;28;20204;-48
2022/03/10 07:55:17;;;;;;;17.25;11.18;;;5.50;99.90;;;;;;5054008;28;20534;-48
2022/03/10 07:57:43;;;;;;;18.08;11.90;;;5.50;99.90;;;;;;5053973;28;20629;-49
2022/03/10 08:00:09;;;;;;;18.17;12.13;;;5.60;99.90;;;;;;5054247;28;20580;-48
2022/03/10 08:02:36;;;;;;;19.65;12.30;;;5.70;99.90;;;;;;5054170;28;20170;-48
2022/03/10 08:05:02;;;;;;;22.17;12.55;;;5.60;99.90;;;;;;5054097;28;20171;-49
2022/03/10 08:07:32;;;;;;;19.85;11.25;;;5.80;99.90;;;;;;5053774;28;20652;-49
2022/03/10 08:10:02;;;;;;;24.38;11.98;;;5.80;99.90;;;;;;5053914;28;20197;-49
2022/03/10 08:12:29;;;;;;;19.05;11.27;;;6.00;99.90;;;;;;5053603;28;20583;-48
2022/03/10 08:14:55;;;;;;;19.05;12.48;;;6.10;99.90;;;;;;5053850;28;20273;-49
2022/03/10 08:17:21;;;;;;;19.40;12.23;;;6.20;99.90;;;;;;5053578;28;20597;-49
2022/03/10 08:19:46;;;;;;;16.92;10.75;;;6.20;99.90;;;;;;5053860;28;20193;-49
2022/03/10 08:22:14;;;;;;;25.17;12.57;;;6.30;99.90;;;;;;5053487;28;20189;-48
2022/03/10 08:24:41;;;;;;;18.77;12.73;;;6.30;99.90;;;;;;5053735;28;20171;-48
2022/03/10 08:27:07;;;;;;;19.15;10.80;;;6.40;99.90;;;;;;5035778;28;20258;-48
2022/03/10 08:29:33;;;;;;;19.98;11.73;;;6.50;99.90;;;;;;5053610;28;20244;-48
2022/03/10 08:31:58;;;;;;;19.65;12.13;;;6.60;99.90;;;;;;5053425;28;20706;-49
2022/03/10 08:34:23;;;;;;;22.63;12.27;;;6.60;99.90;;;;;;5053187;28;20202;-48
2022/03/10 08:36:49;;;;;;;22.67;12.40;;;6.60;99.90;;;;;;5053224;28;20242;-48
2022/03/10 08:39:15;;;;;;;18.75;11.90;;;6.70;99.90;;;;;;5052704;28;20167;-48
2022/03/10 08:41:41;;;;;;;22.13;11.70;;;6.80;99.90;;;;;;5053175;28;20250;-48
2022/03/10 08:44:06;;;;;;;19.83;11.90;;;6.80;99.90;;;;;;5053399;28;20309;-49
2022/03/10 08:46:32;;;;;;;15.05;10.73;;;7.00;99.90;;;;;;5052992;28;20222;-49
2022/03/10 08:48:58;;;;;;;20.45;12.18;;;7.10;99.90;;;;;;5053214;28;20238;-49
2022/03/10 08:51:23;;;;;;;22.58;12.55;;;7.20;99.90;;;;;;5052886;28;20526;-49
2022/03/10 08:53:49;;;;;;;22.25;12.55;;;7.30;99.90;;;;;;5052860;28;20211;-49
2022/03/10 08:56:14;;;;;;;19.98;12.15;;;7.60;99.90;;;;;;5052969;28;20196;-48
2022/03/10 08:58:40;;;;;;;19.08;12.25;;;7.60;99.90;;;;;;5053229;28;20526;-49
2022/03/10 09:01:05;;;;;;;16.85;11.65;;;7.70;99.90;;;;;;5053044;28;20163;-48
2022/03/10 09:03:31;;;;;;;26.58;13.63;;;7.80;99.90;;;;;;5052942;28;20178;-49
2022/03/10 09:05:57;;;;;;;20.73;12.27;;;8.00;99.90;;;;;;5052624;28;20667;-48
2022/03/10 09:08:23;;;;;;;18.73;11.25;;;8.10;99.90;;;;;;5052765;28;20182;-48
2022/03/10 09:10:49;;;;;;;20.00;11.77;;;8.20;99.90;;;;;;5052815;28;20170;-48
2022/03/10 09:13:14;;;;;;;22.08;12.35;;;8.30;99.90;;;;;;5052502;28;20229;-49
2022/03/10 09:15:40;;;;;;;21.42;11.85;;;8.30;99.90;;;;;;5052638;28;20174;-48
2022/03/10 09:18:06;;;;;;;18.83;12.75;;;8.40;99.90;;;;;;5053126;28;20179;-49
2022/03/10 09:20:32;;;;;;;21.73;12.50;;;8.40;99.90;;;;;;5052730;28;20171;-48
2022/03/10 09:22:57;;;;;;;22.38;13.00;;;8.50;99.90;;;;;;5052387;28;20261;-49
2022/03/10 09:25:23;;;;;;;19.15;12.55;;;8.60;99.90;;;;;;5052402;28;20233;-49
2022/03/10 09:27:49;;;;;;;16.65;11.93;;;8.70;99.90;;;;;;5052399;28;20183;-48
2022/03/10 09:30:15;;;;;;;17.83;12.13;;;8.90;99.90;;;;;;5052510;28;20632;-48
2022/03/10 09:32:45;;;;;;;19.98;12.10;;;9.10;99.10;;;;;;5052143;28;20285;-49
2022/03/10 09:35:15;;;;;;;23.23;12.35;;;9.30;98.40;;;;;;5052074;28;20197;-49
2022/03/10 09:37:41;;;;;;;25.10;14.20;;;9.40;98.30;;;;;;5052187;28;20173;-48
2022/03/10 09:40:08;;;;;;;21.17;13.32;;;9.50;97.20;;;;;;5034551;28;20174;-48
2022/03/10 09:42:34;;;;;;;19.02;13.00;;;9.60;96.00;;;;;;5052352;28;20608;-49
2022/03/10 09:45:02;;;;;;;18.83;13.80;;;9.60;96.10;;;;;;5052084;28;20187;-48
2022/03/10 09:47:28;;;;;;;22.60;13.40;;;9.70;96.40;;;;;;5051858;28;20280;-49
2022/03/10 09:49:54;;;;;;;21.13;12.70;;;9.90;96.40;;;;;;5051194;28;20175;-49
2022/03/10 09:52:21;;;;;;;20.77;13.82;;;9.90;94.70;;;;;;5052111;28;20224;-48
2022/03/10 09:54:47;;;;;;;29.42;14.40;;;10.00;94.70;;;;;;5052064;28;20707;-49
2022/03/10 09:57:17;;;;;;;25.90;14.93;;;10.10;94.00;;;;;;5052061;28;20217;-49
2022/03/10 09:59:49;;;;;;;25.88;13.95;;;10.30;93.10;;;;;;5052064;28;20178;-49
2022/03/10 10:02:15;;;;;;;19.65;13.27;;;10.50;93.80;;;;;;5051770;28;20197;-49
2022/03/10 10:04:41;;;;;;;27.38;13.45;;;10.40;93.70;;;;;;5051626;28;20163;-49
2022/03/10 10:07:10;;;;;;;29.60;16.95;;;10.60;93.50;;;;;;5052349;28;20166;-49
2022/03/10 10:09:56;;;;;;;22.63;15.90;;;10.70;92.90;;;;;;5052036;28;20178;-49
2022/03/10 10:12:30;;;;;;;23.13;14.07;;;10.80;91.60;;;;;;5051896;28;20535;-48
2022/03/10 10:14:57;;;;;;;26.42;16.83;;;10.80;91.80;;;;;;5052122;28;20545;-49
2022/03/10 10:17:40;;;;;;;27.75;17.33;;;11.00;91.70;;;;;;5051957;28;20197;-48
2022/03/10 10:20:06;;;;;;;20.35;12.73;;;10.90;90.80;;;;;;5052059;28;20185;-49
2022/03/10 10:22:32;;;;;;;25.45;14.40;;;10.90;90.50;;;;;;5051726;28;20212;-49
2022/03/10 10:24:59;;;;;;;26.50;15.48;;;11.00;90.20;;;;;;5051607;28;20170;-49
2022/03/10 10:27:29;;;;;;;27.25;16.40;;;11.10;90.00;;;;;;5051543;28;20225;-49
2022/03/10 10:29:56;;;;;;;31.85;18.00;;;11.20;90.10;;;;;;5051656;28;20528;-49
2022/03/10 10:32:35;;;;;;;30.73;18.83;;;11.40;88.30;;;;;;5051465;28;20201;-48
2022/03/10 10:35:09;;;;;;;23.08;15.35;;;11.50;88.80;;;;;;5051533;28;20186;-48
2022/03/10 10:37:39;;;;;;;23.67;15.90;;;11.60;87.70;;;;;;5051826;28;20573;-49
2022/03/10 10:40:06;;;;;;;30.85;14.75;;;11.40;87.30;;;;;;5051816;28;20170;-49
2022/03/10 10:42:34;;;;;;;32.55;18.48;;;11.70;87.20;;;;;;5051388;28;20604;-49
2022/03/10 10:45:01;;;;;;;44.40;30.17;;;11.90;87.60;;;;;;5051691;28;20225;-49
2022/03/10 10:47:29;;;;;;;68.97;50.33;;;12.10;88.20;;;;;;5051154;28;20252;-48
2022/03/10 10:49:57;;;;;;;26.33;18.05;;;12.20;87.80;;;;;;5051498;28;20316;-49
2022/03/10 10:52:24;;;;;;;31.65;20.38;;;12.30;86.10;;;;;;5033729;28;20217;-49
2022/03/10 10:55:04;;;;;;;25.40;17.95;;;12.40;84.70;;;;;;5051514;28;20201;-49
2022/03/10 10:57:34;;;;;;;23.17;15.32;;;12.60;84.60;;;;;;5051401;28;20191;-49
2022/03/10 11:00:09;;;;;;;24.88;17.23;;;12.60;84.80;;;;;;5051168;28;20662;-49
2022/03/10 11:02:42;;;;;;;23.42;15.73;;;12.70;83.50;;;;;;5054702;28;20179;-48
2022/03/10 11:05:11;;;;;;;23.08;13.95;;;12.70;82.20;;;;;;5055310;28;20159;-48
2022/03/10 11:07:41;;;;;;;20.27;13.60;;;12.70;79.80;;;;;;5055602;28;20166;-48
2022/03/10 11:10:10;;;;;;;23.50;14.60;;;12.90;79.70;;;;;;5055108;28;20573;-48
2022/03/10 11:12:39;;;;;;;31.77;19.90;;;13.00;79.70;;;;;;5055275;28;20198;-49
2022/03/10 11:15:07;;;;;;;39.75;29.05;;;13.10;79.10;;;;;;5055105;28;20583;-49
2022/03/10 11:17:34;;;;;;;23.38;13.93;;;13.20;78.10;;;;;;5054704;28;20636;-49
2022/03/10 11:20:01;;;;;;;21.55;13.25;;;13.30;77.90;;;;;;5054892;28;20178;-48
2022/03/10 11:23:04;;;;;;;20.38;14.70;;;13.20;76.10;;;;;;5054597;28;20250;-48
2022/03/10 11:25:53;;;;;;;26.10;15.40;;;13.40;76.00;;;;;;5054548;28;20166;-49
2022/03/10 11:28:30;;;;;;;23.85;13.95;;;13.50;75.40;;;;;;5054861;28;20517;-49
2022/03/10 11:31:00;;;;;;;28.65;21.27;;;13.60;75.40;;;;;;5054767;28;20174;-49
2022/03/10 11:33:30;;;;;;;22.08;14.40;;;13.80;74.80;;;;;;5054695;28;20214;-49
2022/03/10 11:35:56;;;;;;;26.58;15.93;;;13.80;72.20;;;;;;5054611;28;20162;-49
2022/03/10 11:38:48;;;;;;;27.42;15.65;;;13.80;73.50;;;;;;5054377;28;20177;-49
2022/03/10 11:41:14;;;;;;;23.55;12.70;;;14.00;74.90;;;;;;5054229;28;20190;-49
2022/03/10 11:43:40;;;;;;;25.42;15.88;;;13.90;72.70;;;;;;5054363;28;20646;-49
2022/03/10 11:46:16;;;;;;;21.23;15.48;;;13.90;73.10;;;;;;5054453;28;20301;-49
2022/03/10 11:48:42;;;;;;;24.90;15.80;;;14.10;72.20;;;;;;5054069;28;20582;-48
2022/03/10 11:51:09;;;;;;;23.55;15.43;;;14.30;72.50;;;;;;5054715;28;20167;-49
2022/03/10 11:53:58;;;;;;;18.75;13.35;;;14.30;71.10;;;;;;5054437;28;20264;-49
2022/03/10 11:56:50;;;;;;;23.98;14.25;;;14.30;70.80;;;;;;5054314;28;20175;-49
2022/03/10 11:59:37;;;;;;;42.28;26.75;;;14.40;70.50;;;;;;5054189;28;20188;-49
2022/03/10 12:02:04;;;;;;;23.05;14.35;;;14.50;70.70;;;;;;5053876;28;20162;-49
2022/03/10 12:04:40;;;;;;;23.15;14.85;;;14.60;70.50;;;;;;5054008;28;20175;-49
2022/03/10 12:07:08;;;;;;;21.75;14.68;;;14.70;69.90;;;;;;5054213;28;20175;-50
2022/03/10 12:09:38;;;;;;;20.35;13.50;;;14.70;70.50;;;;;;5054274;28;20273;-49
2022/03/10 12:12:16;;;;;;;25.33;13.63;;;14.90;70.20;;;;;;5053910;28;20213;-49
2022/03/10 12:14:42;;;;;;;24.70;14.40;;;15.00;68.10;;;;;;5053258;28;20186;-49
2022/03/10 12:17:44;;;;;;;29.90;20.23;;;14.80;68.40;;;;;;5053903;28;20217;-49
2022/03/10 12:20:21;;;;;;;22.50;14.27;;;14.90;67.10;;;;;;5053602;28;20632;-49
2022/03/10 12:22:58;;;;;;;20.25;13.93;;;14.80;65.50;;;;;;5053774;28;20173;-49
2022/03/10 12:25:24;;;;;;;19.30;13.90;;;14.90;66.00;;;;;;5053426;28;20730;-49
2022/03/10 12:27:53;;;;;;;23.20;13.32;;;14.90;65.50;;;;;;5053367;28;20257;-49
2022/03/10 12:30:26;;;;;;;22.10;14.02;;;14.70;63.50;;;;;;5053249;28;20175;-49
2022/03/10 12:32:54;;;;;;;26.55;18.80;;;14.90;64.60;;;;;;5053423;28;20190;-49
2022/03/10 12:35:21;;;;;;;26.70;16.48;;;15.00;64.00;;;;;;5053485;28;20182;-49
2022/03/10 12:37:48;;;;;;;21.77;15.82;;;15.00;64.30;;;;;;5053238;28;20249;-50
2022/03/10 12:40:23;;;;;;;25.15;15.35;;;15.10;63.10;;;;;;5053472;28;20200;-49
2022/03/10 12:42:49;;;;;;;27.40;13.38;;;15.10;63.20;;;;;;5053377;28;20170;-55